sensor_id;sensor_type;location;lat;lon;timestamp;pressure;altitude;pressure_sealevel;temperature;humidity
9746;BME280;4912;50.836;12.958;2023-12-04T00:01:27;98188.78;;;-1.60;83.06
9746;BME280;4912;50.836;12.958;2023-12-04T00:03:58;98196.41;;;-1.80;82.16
9746;BME280;4912;50.836;12.958;2023-12-04T00:06:28;98185.81;;;-1.96;82.26
9746;BME280;4912;50.836;12.958;2023-12-04T00:08:59;98181.81;;;-2.13;81.97
9746;BME280;4912;50.836;12.958;2023-12-04T00:11:30;98178.25;;;-2.20;81.87
9746;BME280;4912;50.836;12.958;2023-12-04T00:14:03;98176.72;;;-2.21;82.34
9746;BME280;4912;50.836;12.958;2023-12-04T00:16:34;98175.97;;;-2.18;83.41
9746;BME280;4912;50.836;12.958;2023-12-04T00:19:05;98180.31;;;-2.07;85.07
9746;BME280;4912;50.836;12.958;2023-12-04T00:21:35;98174.63;;;-1.94;85.78
9746;BME280;4912;50.836;12.958;2023-12-04T00:24:06;98169.63;;;-1.85;85.35
9746;BME280;4912;50.836;12.958;2023-12-04T00:26:37;98169.97;;;-1.90;83.89
9746;BME280;4912;50.836;12.958;2023-12-04T00:29:10;98171.91;;;-1.91;83.82
9746;BME280;4912;50.836;12.958;2023-12-04T00:31:41;98172.69;;;-1.90;83.37
9746;BME280;4912;50.836;12.958;2023-12-04T00:34:12;98165.34;;;-1.86;84.03
9746;BME280;4912;50.836;12.958;2023-12-04T00:36:43;98178.19;;;-1.83;84.41
9746;BME280;4912;50.836;12.958;2023-12-04T00:39:13;98170.47;;;-1.78;83.89
9746;BME280;4912;50.836;12.958;2023-12-04T00:41:44;98178.19;;;-1.80;83.35
9746;BME280;4912;50.836;12.958;2023-12-04T00:44:17;98169.63;;;-1.89;82.37
9746;BME280;4912;50.836;12.958;2023-12-04T00:46:47;98176.44;;;-2.06;82.23
9746;BME280;4912;50.836;12.958;2023-12-04T00:49:18;98185.69;;;-2.14;82.06
9746;BME280;4912;50.836;12.958;2023-12-04T00:51:49;98189.13;;;-2.17;82.14
9746;BME280;4912;50.836;12.958;2023-12-04T00:54:20;98192.97;;;-2.18;82.35
9746;BME280;4912;50.836;12.958;2023-12-04T00:56:51;98186.47;;;-2.13;82.38
9746;BME280;4912;50.836;12.958;2023-12-04T00:59:24;98187.53;;;-2.25;82.56
9746;BME280;4912;50.836;12.958;2023-12-04T01:01:54;98177.75;;;-2.33;82.16
9746;BME280;4912;50.836;12.958;2023-12-04T01:04:25;98179.19;;;-2.46;82.16
9746;BME280;4912;50.836;12.958;2023-12-04T01:06:56;98173.66;;;-2.57;82.11
9746;BME280;4912;50.836;12.958;2023-12-04T01:09:26;98175.59;;;-2.57;81.59
9746;BME280;4912;50.836;12.958;2023-12-04T01:11:57;98173.66;;;-2.57;81.46
9746;BME280;4912;50.836;12.958;2023-12-04T01:14:30;98177.56;;;-2.54;82.15
9746;BME280;4912;50.836;12.958;2023-12-04T01:17:01;98178.72;;;-2.55;82.51
9746;BME280;4912;50.836;12.958;2023-12-04T01:19:31;98176.03;;;-2.52;83.02
9746;BME280;4912;50.836;12.958;2023-12-04T01:22:02;98171.38;;;-2.55;83.79
9746;BME280;4912;50.836;12.958;2023-12-04T01:24:33;98171.75;;;-2.53;84.57
9746;BME280;4912;50.836;12.958;2023-12-04T01:27:04;98163.69;;;-2.49;85.03
9746;BME280;4912;50.836;12.958;2023-12-04T01:29:38;98161.75;;;-2.49;85.14
9746;BME280;4912;50.836;12.958;2023-12-04T01:32:08;98157.16;;;-2.44;85.37
9746;BME280;4912;50.836;12.958;2023-12-04T01:34:39;98154.16;;;-2.32;85.22
9746;BME280;4912;50.836;12.958;2023-12-04T01:37:09;98153.88;;;-2.17;84.89
9746;BME280;4912;50.836;12.958;2023-12-04T01:39:40;98143.16;;;-2.02;84.20
9746;BME280;4912;50.836;12.958;2023-12-04T01:42:10;98141.31;;;-1.88;83.61
9746;BME280;4912;50.836;12.958;2023-12-04T01:44:44;98147.22;;;-1.75;82.91
9746;BME280;4912;50.836;12.958;2023-12-04T01:47:14;98138.41;;;-1.65;82.16
9746;BME280;4912;50.836;12.958;2023-12-04T01:49:45;98140.34;;;-1.58;81.26
9746;BME280;4912;50.836;12.958;2023-12-04T01:52:16;98143.47;;;-1.56;81.03
9746;BME280;4912;50.836;12.958;2023-12-04T01:54:47;98138.03;;;-1.53;80.65
9746;BME280;4912;50.836;12.958;2023-12-04T01:57:18;98133.44;;;-1.49;80.32
9746;BME280;4912;50.836;12.958;2023-12-04T01:59:51;98126.44;;;-1.46;80.10
9746;BME280;4912;50.836;12.958;2023-12-04T02:02:21;98124.16;;;-1.48;79.90
9746;BME280;4912;50.836;12.958;2023-12-04T02:04:54;98109.06;;;-1.42;79.41
9746;BME280;4912;50.836;12.958;2023-12-04T02:07:26;98112.16;;;-1.40;79.24
9746;BME280;4912;50.836;12.958;2023-12-04T02:09:56;98111.00;;;-1.35;78.83
9746;BME280;4912;50.836;12.958;2023-12-04T02:12:27;98112.56;;;-1.34;78.30
9746;BME280;4912;50.836;12.958;2023-12-04T02:15:01;98097.41;;;-1.39;78.39
9746;BME280;4912;50.836;12.958;2023-12-04T02:17:32;98099.75;;;-1.37;78.10
9746;BME280;4912;50.836;12.958;2023-12-04T02:20:04;98096.25;;;-1.41;77.92
9746;BME280;4912;50.836;12.958;2023-12-04T02:22:37;98086.94;;;-1.47;77.79
9746;BME280;4912;50.836;12.958;2023-12-04T02:25:11;98092.31;;;-1.51;77.90
9746;BME280;4912;50.836;12.958;2023-12-04T02:28:02;98083.78;;;-1.53;78.15
9746;BME280;4912;50.836;12.958;2023-12-04T02:30:36;98077.53;;;-1.64;78.28
9746;BME280;4912;50.836;12.958;2023-12-04T02:33:07;98064.38;;;-1.62;78.28
9746;BME280;4912;50.836;12.958;2023-12-04T02:35:42;98063.59;;;-1.59;77.97
9746;BME280;4912;50.836;12.958;2023-12-04T02:38:13;98053.56;;;-1.55;78.04
9746;BME280;4912;50.836;12.958;2023-12-04T02:40:47;98061.72;;;-1.51;77.70
9746;BME280;4912;50.836;12.958;2023-12-04T02:43:17;98055.13;;;-1.50;77.35
9746;BME280;4912;50.836;12.958;2023-12-04T02:45:48;98053.59;;;-1.48;77.43
9746;BME280;4912;50.836;12.958;2023-12-04T02:48:19;98048.53;;;-1.46;76.81
9746;BME280;4912;50.836;12.958;2023-12-04T02:50:50;98043.53;;;-1.44;76.92
9746;BME280;4912;50.836;12.958;2023-12-04T02:53:20;98047.03;;;-1.40;76.58
9746;BME280;4912;50.836;12.958;2023-12-04T02:55:54;98048.56;;;-1.42;75.98
9746;BME280;4912;50.836;12.958;2023-12-04T02:58:24;98043.53;;;-1.47;76.14
9746;BME280;4912;50.836;12.958;2023-12-04T03:00:55;98042.34;;;-1.50;76.09
9746;BME280;4912;50.836;12.958;2023-12-04T03:03:25;98041.97;;;-1.48;76.31
9746;BME280;4912;50.836;12.958;2023-12-04T03:05:56;98042.34;;;-1.46;76.10
9746;BME280;4912;50.836;12.958;2023-12-04T03:08:27;98040.81;;;-1.47;76.36
9746;BME280;4912;50.836;12.958;2023-12-04T03:11:01;98036.50;;;-1.52;76.34
9746;BME280;4912;50.836;12.958;2023-12-04T03:13:32;98029.16;;;-1.55;75.93
9746;BME280;4912;50.836;12.958;2023-12-04T03:16:03;98031.47;;;-1.53;75.85
9746;BME280;4912;50.836;12.958;2023-12-04T03:18:36;98031.06;;;-1.55;75.60
9746;BME280;4912;50.836;12.958;2023-12-04T03:21:07;98024.88;;;-1.56;75.67
9746;BME280;4912;50.836;12.958;2023-12-04T03:23:37;98029.53;;;-1.60;75.46
9746;BME280;4912;50.836;12.958;2023-12-04T03:26:11;98033.34;;;-1.65;76.73
9746;BME280;4912;50.836;12.958;2023-12-04T03:28:42;98024.84;;;-1.67;76.59
9746;BME280;4912;50.836;12.958;2023-12-04T03:31:12;98030.22;;;-1.70;76.92
9746;BME280;4912;50.836;12.958;2023-12-04T03:33:43;98024.81;;;-1.70;76.33
9746;BME280;4912;50.836;12.958;2023-12-04T03:36:14;98026.38;;;-1.69;76.17
9746;BME280;4912;50.836;12.958;2023-12-04T03:38:44;98021.72;;;-1.72;76.17
9746;BME280;4912;50.836;12.958;2023-12-04T03:41:18;98027.94;;;-1.68;75.87
9746;BME280;4912;50.836;12.958;2023-12-04T03:43:49;98019.78;;;-1.65;75.66
9746;BME280;4912;50.836;12.958;2023-12-04T03:46:19;98024.47;;;-1.65;75.48
9746;BME280;4912;50.836;12.958;2023-12-04T03:48:50;98021.34;;;-1.67;75.36
9746;BME280;4912;50.836;12.958;2023-12-04T03:51:21;98011.28;;;-1.63;75.49
9746;BME280;4912;50.836;12.958;2023-12-04T03:53:52;98003.13;;;-1.63;75.13
9746;BME280;4912;50.836;12.958;2023-12-04T03:56:25;98007.81;;;-1.60;75.00
9746;BME280;4912;50.836;12.958;2023-12-04T03:58:56;98006.25;;;-1.61;75.54
9746;BME280;4912;50.836;12.958;2023-12-04T04:01:27;97999.28;;;-1.62;75.57
9746;BME280;4912;50.836;12.958;2023-12-04T04:03:57;97984.56;;;-1.61;74.97
9746;BME280;4912;50.836;12.958;2023-12-04T04:06:28;97987.66;;;-1.59;74.65
9746;BME280;4912;50.836;12.958;2023-12-04T04:08:59;97995.03;;;-1.56;74.13
9746;BME280;4912;50.836;12.958;2023-12-04T04:11:32;97995.41;;;-1.57;73.94
9746;BME280;4912;50.836;12.958;2023-12-04T04:14:03;97991.53;;;-1.53;74.06
9746;BME280;4912;50.836;12.958;2023-12-04T04:16:33;97994.69;;;-1.47;74.16
9746;BME280;4912;50.836;12.958;2023-12-04T04:19:05;97998.97;;;-1.43;74.27
9746;BME280;4912;50.836;12.958;2023-12-04T04:21:39;97997.41;;;-1.40;74.17
9746;BME280;4912;50.836;12.958;2023-12-04T04:24:10;97998.19;;;-1.33;73.63
9746;BME280;4912;50.836;12.958;2023-12-04T04:26:43;97991.22;;;-1.30;73.58
9746;BME280;4912;50.836;12.958;2023-12-04T04:29:14;97994.72;;;-1.23;73.64
9746;BME280;4912;50.836;12.958;2023-12-04T04:31:45;97991.25;;;-1.19;73.96
9746;BME280;4912;50.836;12.958;2023-12-04T04:34:15;97981.53;;;-1.20;73.78
9746;BME280;4912;50.836;12.958;2023-12-04T04:36:46;97981.16;;;-1.15;73.63
9746;BME280;4912;50.836;12.958;2023-12-04T04:39:17;97976.91;;;-1.13;73.25
9746;BME280;4912;50.836;12.958;2023-12-04T04:41:50;97971.84;;;-1.11;72.87
9746;BME280;4912;50.836;12.958;2023-12-04T04:44:21;97978.44;;;-1.12;72.92
9746;BME280;4912;50.836;12.958;2023-12-04T04:46:53;97978.47;;;-1.08;72.91
9746;BME280;4912;50.836;12.958;2023-12-04T04:49:24;97984.28;;;-1.06;72.60
9746;BME280;4912;50.836;12.958;2023-12-04T04:51:55;97980.78;;;-1.03;72.03
9746;BME280;4912;50.836;12.958;2023-12-04T04:54:25;97966.47;;;-1.00;71.66
9746;BME280;4912;50.836;12.958;2023-12-04T04:56:59;97955.19;;;-0.99;70.96
9746;BME280;4912;50.836;12.958;2023-12-04T04:59:29;97961.41;;;-1.02;70.65
9746;BME280;4912;50.836;12.958;2023-12-04T05:02:00;97950.53;;;-1.12;71.08
9746;BME280;4912;50.836;12.958;2023-12-04T05:04:30;97952.09;;;-1.08;71.33
9746;BME280;4912;50.836;12.958;2023-12-04T05:07:01;97936.16;;;-1.06;70.75
9746;BME280;4912;50.836;12.958;2023-12-04T05:09:32;97937.34;;;-1.10;70.95
9746;BME280;4912;50.836;12.958;2023-12-04T05:12:06;97925.31;;;-1.09;71.18
9746;BME280;4912;50.836;12.958;2023-12-04T05:14:37;97921.06;;;-1.03;71.15
9746;BME280;4912;50.836;12.958;2023-12-04T05:17:07;97912.91;;;-1.00;71.40
9746;BME280;4912;50.836;12.958;2023-12-04T05:19:38;97914.06;;;-0.94;71.33
9746;BME280;4912;50.836;12.958;2023-12-04T05:22:08;97897.00;;;-0.91;70.83
9746;BME280;4912;50.836;12.958;2023-12-04T05:24:39;97895.44;;;-0.92;70.51
9746;BME280;4912;50.836;12.958;2023-12-04T05:27:12;97894.66;;;-0.92;70.64
9746;BME280;4912;50.836;12.958;2023-12-04T05:29:43;97896.22;;;-0.91;70.77
9746;BME280;4912;50.836;12.958;2023-12-04T05:32:14;97890.03;;;-0.92;70.49
9746;BME280;4912;50.836;12.958;2023-12-04T05:34:44;97886.91;;;-0.90;70.38
9746;BME280;4912;50.836;12.958;2023-12-04T05:37:15;97886.53;;;-0.89;70.44
9746;BME280;4912;50.836;12.958;2023-12-04T05:39:46;97894.28;;;-0.87;70.47
9746;BME280;4912;50.836;12.958;2023-12-04T05:42:19;97886.13;;;-0.80;70.38
9746;BME280;4912;50.836;12.958;2023-12-04T05:44:49;97891.56;;;-0.84;70.35
9746;BME280;4912;50.836;12.958;2023-12-04T05:47:22;97888.06;;;-0.88;70.60
9746;BME280;4912;50.836;12.958;2023-12-04T05:49:53;97902.41;;;-0.87;70.83
9746;BME280;4912;50.836;12.958;2023-12-04T05:52:23;97892.34;;;-0.87;70.85
9746;BME280;4912;50.836;12.958;2023-12-04T05:54:54;97891.19;;;-0.89;71.25
9746;BME280;4912;50.836;12.958;2023-12-04T05:57:27;97884.59;;;-0.92;71.30
9746;BME280;4912;50.836;12.958;2023-12-04T05:59:58;97883.03;;;-0.93;71.29
9746;BME280;4912;50.836;12.958;2023-12-04T06:02:30;97878.00;;;-0.84;71.29
9746;BME280;4912;50.836;12.958;2023-12-04T06:05:00;97876.03;;;-0.87;71.17
9746;BME280;4912;50.836;12.958;2023-12-04T06:07:31;97872.56;;;-0.91;71.47
9746;BME280;4912;50.836;12.958;2023-12-04T06:10:02;97873.72;;;-0.85;71.55
9746;BME280;4912;50.836;12.958;2023-12-04T06:12:36;97877.59;;;-0.93;71.87
9746;BME280;4912;50.836;12.958;2023-12-04T06:15:08;97872.94;;;-0.92;72.00
9746;BME280;4912;50.836;12.958;2023-12-04T06:17:39;97867.91;;;-0.94;72.43
9746;BME280;4912;50.836;12.958;2023-12-04T06:20:11;97862.09;;;-0.92;72.30
9746;BME280;4912;50.836;12.958;2023-12-04T06:22:42;97849.66;;;-0.93;72.20
9746;BME280;4912;50.836;12.958;2023-12-04T06:25:13;97853.16;;;-0.89;72.13
9746;BME280;4912;50.836;12.958;2023-12-04T06:27:48;97843.47;;;-0.90;71.89
9746;BME280;4912;50.836;12.958;2023-12-04T06:30:20;97844.22;;;-0.86;72.05
9746;BME280;4912;50.836;12.958;2023-12-04T06:32:52;97846.94;;;-0.82;72.04
9746;BME280;4912;50.836;12.958;2023-12-04T06:35:24;97850.47;;;-0.89;71.93
9746;BME280;4912;50.836;12.958;2023-12-04T06:37:55;97852.75;;;-0.88;72.43
9746;BME280;4912;50.836;12.958;2023-12-04T06:40:30;97841.13;;;-0.85;72.36
9746;BME280;4912;50.836;12.958;2023-12-04T06:43:04;97848.13;;;-0.84;72.02
9746;BME280;4912;50.836;12.958;2023-12-04T06:45:35;97849.28;;;-0.85;72.03
9746;BME280;4912;50.836;12.958;2023-12-04T06:48:08;97853.13;;;-0.82;72.11
9746;BME280;4912;50.836;12.958;2023-12-04T06:50:39;97859.72;;;-0.76;71.98
9746;BME280;4912;50.836;12.958;2023-12-04T06:53:10;97857.41;;;-0.74;71.76
9746;BME280;4912;50.836;12.958;2023-12-04T06:55:40;97858.56;;;-0.78;71.82
9746;BME280;4912;50.836;12.958;2023-12-04T06:58:14;97855.47;;;-0.84;71.84
9746;BME280;4912;50.836;12.958;2023-12-04T07:00:44;97847.31;;;-0.77;71.95
9746;BME280;4912;50.836;12.958;2023-12-04T07:03:15;97844.19;;;-0.68;71.68
9746;BME280;4912;50.836;12.958;2023-12-04T07:05:46;97844.19;;;-0.65;71.64
9746;BME280;4912;50.836;12.958;2023-12-04T07:08:16;97845.72;;;-0.57;71.80
9746;BME280;4912;50.836;12.958;2023-12-04T07:10:47;97847.25;;;-0.56;72.32
9746;BME280;4912;50.836;12.958;2023-12-04T07:13:20;97835.59;;;-0.53;72.04
9746;BME280;4912;50.836;12.958;2023-12-04T07:15:51;97833.69;;;-0.59;72.09
9746;BME280;4912;50.836;12.958;2023-12-04T07:18:22;97831.00;;;-0.66;72.14
9746;BME280;4912;50.836;12.958;2023-12-04T07:20:52;97829.03;;;-0.62;72.18
9746;BME280;4912;50.836;12.958;2023-12-04T07:23:23;97819.28;;;-0.53;72.15
9746;BME280;4912;50.836;12.958;2023-12-04T07:25:54;97816.53;;;-0.46;71.86
9746;BME280;4912;50.836;12.958;2023-12-04T07:28:27;97818.50;;;-0.43;71.80
9746;BME280;4912;50.836;12.958;2023-12-04T07:30:57;97828.22;;;-0.49;71.31
9746;BME280;4912;50.836;12.958;2023-12-04T07:33:28;97815.78;;;-0.46;71.60
9746;BME280;4912;50.836;12.958;2023-12-04T07:36:00;97812.63;;;-0.34;71.11
9746;BME280;4912;50.836;12.958;2023-12-04T07:38:31;97811.06;;;-0.35;70.77
9746;BME280;4912;50.836;12.958;2023-12-04T07:41:01;97817.25;;;-0.27;70.83
9746;BME280;4912;50.836;12.958;2023-12-04T07:43:35;97815.69;;;-0.28;70.68
9746;BME280;4912;50.836;12.958;2023-12-04T07:46:06;97817.63;;;-0.25;70.58
9746;BME280;4912;50.836;12.958;2023-12-04T07:48:40;97818.38;;;-0.21;70.36
9746;BME280;4912;50.836;12.958;2023-12-04T07:51:11;97810.59;;;-0.16;70.39
9746;BME280;4912;50.836;12.958;2023-12-04T07:53:41;97815.66;;;-0.18;69.70
9746;BME280;4912;50.836;12.958;2023-12-04T07:56:12;97824.22;;;-0.23;69.89
9746;BME280;4912;50.836;12.958;2023-12-04T07:58:46;97822.25;;;-0.15;70.01
9746;BME280;4912;50.836;12.958;2023-12-04T08:01:16;97823.34;;;-0.02;69.75
9746;BME280;4912;50.836;12.958;2023-12-04T08:03:47;97833.06;;;-0.01;69.33
9746;BME280;4912;50.836;12.958;2023-12-04T08:06:18;97837.69;;;0.02;69.52
9746;BME280;4912;50.836;12.958;2023-12-04T08:08:48;97823.66;;;0.07;70.35
9746;BME280;4912;50.836;12.958;2023-12-04T08:11:19;97833.72;;;0.17;69.98
9746;BME280;4912;50.836;12.958;2023-12-04T08:13:54;97828.22;;;0.24;69.35
9746;BME280;4912;50.836;12.958;2023-12-04T08:16:24;97814.94;;;0.33;69.03
9746;BME280;4912;50.836;12.958;2023-12-04T08:18:56;97824.25;;;0.36;68.55
9746;BME280;4912;50.836;12.958;2023-12-04T08:21:27;97820.34;;;0.40;67.89
9746;BME280;4912;50.836;12.958;2023-12-04T08:23:59;97813.34;;;0.39;67.48
9746;BME280;4912;50.836;12.958;2023-12-04T08:26:30;97814.91;;;0.37;67.46
9746;BME280;4912;50.836;12.958;2023-12-04T08:29:03;97808.22;;;0.52;67.60
9746;BME280;4912;50.836;12.958;2023-12-04T08:31:34;97811.56;;;0.67;66.83
9746;BME280;4912;50.836;12.958;2023-12-04T08:34:05;97811.47;;;0.81;65.77
9746;BME280;4912;50.836;12.958;2023-12-04T08:36:36;97800.56;;;0.81;65.28
9746;BME280;4912;50.836;12.958;2023-12-04T08:39:12;97808.97;;;0.97;65.92
9746;BME280;4912;50.836;12.958;2023-12-04T08:41:45;97805.50;;;0.93;64.44
9746;BME280;4912;50.836;12.958;2023-12-04T08:44:30;97798.06;;;0.97;65.02
9746;BME280;4912;50.836;12.958;2023-12-04T08:47:00;97796.41;;;1.07;64.21
9746;BME280;4912;50.836;12.958;2023-12-04T08:49:31;97793.34;;;1.01;64.20
9746;BME280;4912;50.836;12.958;2023-12-04T08:52:12;97799.22;;;1.00;64.09
9746;BME280;4912;50.836;12.958;2023-12-04T08:54:43;97801.78;;;1.14;63.84
9746;BME280;4912;50.836;12.958;2023-12-04T08:57:14;97802.03;;;1.27;63.47
9746;BME280;4912;50.836;12.958;2023-12-04T08:59:47;97803.03;;;1.43;65.33
9746;BME280;4912;50.836;12.958;2023-12-04T09:02:18;97803.31;;;1.52;63.24
9746;BME280;4912;50.836;12.958;2023-12-04T09:04:48;97794.34;;;1.52;61.63
9746;BME280;4912;50.836;12.958;2023-12-04T09:07:19;97795.31;;;1.69;62.43
9746;BME280;4912;50.836;12.958;2023-12-04T09:09:53;97787.69;;;1.87;60.94
9746;BME280;4912;50.836;12.958;2023-12-04T09:12:24;97779.91;;;1.85;59.96
9746;BME280;4912;50.836;12.958;2023-12-04T09:14:57;97790.00;;;1.88;59.42
9746;BME280;4912;50.836;12.958;2023-12-04T09:17:28;97777.72;;;1.73;59.78
9746;BME280;4912;50.836;12.958;2023-12-04T09:20:06;97782.47;;;1.69;59.04
9746;BME280;4912;50.836;12.958;2023-12-04T09:22:38;97801.38;;;1.53;58.79
9746;BME280;4912;50.836;12.958;2023-12-04T09:25:11;97785.09;;;1.42;59.64
9746;BME280;4912;50.836;12.958;2023-12-04T09:27:42;97770.91;;;1.58;60.16
9746;BME280;4912;50.836;12.958;2023-12-04T09:30:16;97805.84;;;1.67;58.72
9746;BME280;4912;50.836;12.958;2023-12-04T09:32:47;97780.28;;;1.53;59.51
9746;BME280;4912;50.836;12.958;2023-12-04T09:35:17;97774.44;;;1.85;58.71
9746;BME280;4912;50.836;12.958;2023-12-04T09:37:48;97768.88;;;1.92;57.85
9746;BME280;4912;50.836;12.958;2023-12-04T09:40:19;97768.31;;;2.31;57.52
9746;BME280;4912;50.836;12.958;2023-12-04T09:42:51;97768.28;;;2.58;56.17
9746;BME280;4912;50.836;12.958;2023-12-04T09:45:24;97774.53;;;2.78;55.47
9746;BME280;4912;50.836;12.958;2023-12-04T09:47:56;97775.34;;;3.22;54.33
9746;BME280;4912;50.836;12.958;2023-12-04T09:50:27;97781.28;;;3.37;53.45
9746;BME280;4912;50.836;12.958;2023-12-04T09:52:58;97777.69;;;3.59;52.65
9746;BME280;4912;50.836;12.958;2023-12-04T09:55:30;97771.53;;;3.55;52.06
9746;BME280;4912;50.836;12.958;2023-12-04T09:58:01;97765.50;;;3.44;52.11
9746;BME280;4912;50.836;12.958;2023-12-04T10:00:35;97769.22;;;3.54;52.73
9746;BME280;4912;50.836;12.958;2023-12-04T10:03:06;97774.00;;;3.69;51.22
9746;BME280;4912;50.836;12.958;2023-12-04T10:05:37;97755.25;;;4.20;50.60
9746;BME280;4912;50.836;12.958;2023-12-04T10:08:08;97767.50;;;4.80;50.17
9746;BME280;4912;50.836;12.958;2023-12-04T10:10:39;97754.41;;;4.56;49.08
9746;BME280;4912;50.836;12.958;2023-12-04T10:13:09;97753.41;;;4.33;49.45
9746;BME280;4912;50.836;12.958;2023-12-04T10:16:03;97742.91;;;3.96;50.67
9746;BME280;4912;50.836;12.958;2023-12-04T10:18:34;97744.47;;;3.97;51.41
9746;BME280;4912;50.836;12.958;2023-12-04T10:21:05;97735.38;;;3.84;51.26
9746;BME280;4912;50.836;12.958;2023-12-04T10:23:45;97729.72;;;3.75;50.97
9746;BME280;4912;50.836;12.958;2023-12-04T10:26:16;97730.00;;;3.60;51.99
9746;BME280;4912;50.836;12.958;2023-12-04T10:28:58;97735.28;;;3.51;52.00
9746;BME280;4912;50.836;12.958;2023-12-04T10:31:35;97730.38;;;3.43;52.45
9746;BME280;4912;50.836;12.958;2023-12-04T10:34:05;97730.31;;;3.07;52.36
9746;BME280;4912;50.836;12.958;2023-12-04T10:36:37;97724.63;;;2.98;53.89
9746;BME280;4912;50.836;12.958;2023-12-04T10:39:08;97713.66;;;2.78;53.71
9746;BME280;4912;50.836;12.958;2023-12-04T10:41:40;97711.50;;;2.69;53.60
9746;BME280;4912;50.836;12.958;2023-12-04T10:44:16;97697.78;;;2.73;54.38
9746;BME280;4912;50.836;12.958;2023-12-04T10:46:50;97690.97;;;2.61;54.06
9746;BME280;4912;50.836;12.958;2023-12-04T10:49:21;97693.13;;;2.50;54.00
9746;BME280;4912;50.836;12.958;2023-12-04T10:51:54;97688.22;;;2.41;54.63
9746;BME280;4912;50.836;12.958;2023-12-04T10:54:27;97673.88;;;2.57;54.76
9746;BME280;4912;50.836;12.958;2023-12-04T10:57:01;97678.09;;;2.81;53.35
9746;BME280;4912;50.836;12.958;2023-12-04T10:59:36;97672.28;;;2.79;53.32
9746;BME280;4912;50.836;12.958;2023-12-04T11:02:19;97663.31;;;2.79;53.23
9746;BME280;4912;50.836;12.958;2023-12-04T11:04:55;97665.50;;;2.87;53.76
9746;BME280;4912;50.836;12.958;2023-12-04T11:07:36;97660.78;;;2.68;52.85
9746;BME280;4912;50.836;12.958;2023-12-04T11:10:29;97653.84;;;2.64;52.99
9746;BME280;4912;50.836;12.958;2023-12-04T11:13:06;97643.13;;;2.53;53.53
9746;BME280;4912;50.836;12.958;2023-12-04T11:15:48;97646.28;;;2.71;53.81
9746;BME280;4912;50.836;12.958;2023-12-04T11:18:23;97628.84;;;2.65;54.06
9746;BME280;4912;50.836;12.958;2023-12-04T11:20:58;97633.84;;;2.70;52.50
9746;BME280;4912;50.836;12.958;2023-12-04T11:23:30;97648.75;;;2.85;52.09
9746;BME280;4912;50.836;12.958;2023-12-04T11:26:02;97629.28;;;2.83;52.49
9746;BME280;4912;50.836;12.958;2023-12-04T11:28:34;97645.25;;;2.85;51.64
9746;BME280;4912;50.836;12.958;2023-12-04T11:31:06;97611.75;;;3.01;52.21
9746;BME280;4912;50.836;12.958;2023-12-04T11:33:40;97611.16;;;3.29;51.64
9746;BME280;4912;50.836;12.958;2023-12-04T11:36:12;97594.78;;;3.45;50.45
9746;BME280;4912;50.836;12.958;2023-12-04T11:38:44;97605.03;;;3.41;49.74
9746;BME280;4912;50.836;12.958;2023-12-04T11:41:17;97598.34;;;3.42;50.05
9746;BME280;4912;50.836;12.958;2023-12-04T11:43:56;97588.63;;;3.57;49.63
9746;BME280;4912;50.836;12.958;2023-12-04T11:46:28;97589.25;;;3.65;48.94
9746;BME280;4912;50.836;12.958;2023-12-04T11:52:08;97582.56;;;3.82;48.58
9746;BME280;4912;50.836;12.958;2023-12-04T11:54:56;97573.81;;;4.03;48.79
9746;BME280;4912;50.836;12.958;2023-12-04T11:57:34;97574.66;;;4.17;48.12
9746;BME280;4912;50.836;12.958;2023-12-04T12:00:09;97575.06;;;4.15;47.92
9746;BME280;4912;50.836;12.958;2023-12-04T12:02:48;97567.75;;;4.12;46.86
9746;BME280;4912;50.836;12.958;2023-12-04T12:05:51;97572.50;;;4.08;48.38
9746;BME280;4912;50.836;12.958;2023-12-04T12:08:23;97569.25;;;4.29;48.37
9746;BME280;4912;50.836;12.958;2023-12-04T12:11:00;97573.22;;;4.41;48.31
9746;BME280;4912;50.836;12.958;2023-12-04T12:13:31;97560.44;;;4.22;47.96
9746;BME280;4912;50.836;12.958;2023-12-04T12:16:01;97556.25;;;4.17;48.02
9746;BME280;4912;50.836;12.958;2023-12-04T12:18:35;97559.69;;;4.05;47.99
9746;BME280;4912;50.836;12.958;2023-12-04T12:21:09;97559.28;;;3.90;48.01
9746;BME280;4912;50.836;12.958;2023-12-04T12:23:40;97555.78;;;3.90;48.34
9746;BME280;4912;50.836;12.958;2023-12-04T12:26:11;97554.69;;;3.87;47.99
9746;BME280;4912;50.836;12.958;2023-12-04T12:28:42;97555.09;;;3.86;48.86
9746;BME280;4912;50.836;12.958;2023-12-04T12:31:13;97549.28;;;3.84;49.00
9746;BME280;4912;50.836;12.958;2023-12-04T12:33:43;97546.56;;;3.67;49.19
9746;BME280;4912;50.836;12.958;2023-12-04T12:36:17;97538.53;;;3.60;49.54
9746;BME280;4912;50.836;12.958;2023-12-04T12:38:48;97535.88;;;3.57;49.32
9746;BME280;4912;50.836;12.958;2023-12-04T12:41:20;97532.28;;;3.27;49.52
9746;BME280;4912;50.836;12.958;2023-12-04T12:43:51;97531.34;;;3.18;50.00
9746;BME280;4912;50.836;12.958;2023-12-04T12:46:23;97526.13;;;3.23;50.82
9746;BME280;4912;50.836;12.958;2023-12-04T12:48:54;97525.19;;;3.30;50.99
9746;BME280;4912;50.836;12.958;2023-12-04T12:51:28;97522.19;;;3.24;50.41
9746;BME280;4912;50.836;12.958;2023-12-04T12:53:59;97517.38;;;2.96;50.36
9746;BME280;4912;50.836;12.958;2023-12-04T12:56:30;97504.91;;;2.95;51.56
9746;BME280;4912;50.836;12.958;2023-12-04T12:59:01;97519.56;;;2.85;51.17
9746;BME280;4912;50.836;12.958;2023-12-04T13:01:32;97512.28;;;2.78;51.75
9746;BME280;4912;50.836;12.958;2023-12-04T13:04:03;97500.53;;;2.81;51.69
9746;BME280;4912;50.836;12.958;2023-12-04T13:06:37;97497.94;;;2.74;51.17
9746;BME280;4912;50.836;12.958;2023-12-04T13:09:08;97495.31;;;2.51;51.28
9746;BME280;4912;50.836;12.958;2023-12-04T13:11:45;97503.47;;;2.35;52.14
9746;BME280;4912;50.836;12.958;2023-12-04T13:14:16;97486.22;;;2.38;52.70
9746;BME280;4912;50.836;12.958;2023-12-04T13:16:46;97486.28;;;2.54;52.29
9746;BME280;4912;50.836;12.958;2023-12-04T13:19:17;97475.53;;;2.47;51.94
9746;BME280;4912;50.836;12.958;2023-12-04T13:21:51;97471.78;;;2.57;52.12
9746;BME280;4912;50.836;12.958;2023-12-04T13:24:21;97464.22;;;2.65;51.68
9746;BME280;4912;50.836;12.958;2023-12-04T13:26:52;97458.25;;;2.70;51.81
9746;BME280;4912;50.836;12.958;2023-12-04T13:29:23;97452.28;;;2.75;51.10
9746;BME280;4912;50.836;12.958;2023-12-04T13:31:54;97450.13;;;2.66;51.01
9746;BME280;4912;50.836;12.958;2023-12-04T13:34:25;97449.19;;;2.73;50.64
9746;BME280;4912;50.836;12.958;2023-12-04T13:36:59;97448.38;;;2.76;49.95
9746;BME280;4912;50.836;12.958;2023-12-04T13:39:30;97455.94;;;2.68;49.51
9746;BME280;4912;50.836;12.958;2023-12-04T13:42:16;97447.28;;;2.54;49.47
9746;BME280;4912;50.836;12.958;2023-12-04T13:44:59;97451.00;;;2.63;50.14